Time;durP1;ratioP1;P1;durP2;ratioP2;P2;SDS_P1;SDS_P2;PMS_P1;PMS_P2;Temp;Humidity;BMP_temperature;BMP_pressure;BME280_temperature;BME280_humidity;BME280_pressure;Samples;Min_cycle;Max_cycle;Signal;HPM_P1;HPM_P2
2023/08/28 00:00:38;;;;;;;11.23;7.68;;;24.90;90.70;;;;;;5099441;28;20016;-85
2023/08/28 00:03:04;;;;;;;24.58;7.95;;;24.90;91.10;;;;;;5101184;28;20020;-85
2023/08/28 00:05:31;;;;;;;17.02;8.23;;;24.80;91.40;;;;;;5093775;28;20400;-85
2023/08/28 00:07:57;;;;;;;10.02;6.85;;;24.80;91.80;;;;;;5093370;28;20039;-85
2023/08/28 00:10:23;;;;;;;14.90;9.07;;;24.70;92.00;;;;;;5093707;28;20024;-85
2023/08/28 00:12:49;;;;;;;11.07;8.63;;;24.70;92.10;;;;;;5094667;28;20106;-85
2023/08/28 00:15:14;;;;;;;13.95;8.02;;;24.60;92.70;;;;;;5094396;28;20122;-85
2023/08/28 00:17:40;;;;;;;23.15;7.68;;;24.60;93.00;;;;;;5094206;28;20154;-85
2023/08/28 00:20:09;;;;;;;12.10;7.57;;;24.50;93.30;;;;;;5094237;28;20078;-85
2023/08/28 00:22:38;;;;;;;16.10;7.18;;;24.50;93.80;;;;;;5094455;28;20411;-85
2023/08/28 00:25:04;;;;;;;20.17;7.60;;;24.50;93.80;;;;;;5094366;28;20020;-85
2023/08/28 00:27:31;;;;;;;11.07;7.20;;;24.50;94.00;;;;;;5094229;28;20547;-85
2023/08/28 00:29:57;;;;;;;11.48;6.95;;;24.50;94.00;;;;;;5094787;28;20109;-85
2023/08/28 00:32:22;;;;;;;13.57;7.75;;;24.50;94.00;;;;;;5093169;28;20112;-85
2023/08/28 00:34:49;;;;;;;12.13;8.10;;;24.50;94.20;;;;;;5094161;28;20028;-85
2023/08/28 00:37:14;;;;;;;13.10;7.97;;;24.40;94.60;;;;;;5092945;28;20047;-85
2023/08/28 00:39:40;;;;;;;17.98;7.75;;;24.40;95.40;;;;;;5093567;28;20034;-84
2023/08/28 00:42:06;;;;;;;14.00;7.22;;;24.40;95.60;;;;;;5093994;28;20024;-85
2023/08/28 00:44:32;;;;;;;13.05;7.40;;;24.40;95.70;;;;;;5094150;28;20024;-85
2023/08/28 00:46:58;;;;;;;14.77;7.10;;;24.40;95.30;;;;;;5092781;28;20124;-85
2023/08/28 00:49:24;;;;;;;15.05;6.55;;;24.50;95.10;;;;;;5092893;28;20472;-85
2023/08/28 00:51:50;;;;;;;16.20;7.78;;;24.50;95.30;;;;;;5093906;28;20035;-87
2023/08/28 00:54:16;;;;;;;14.20;6.82;;;24.50;95.30;;;;;;5092199;28;20035;-85
2023/08/28 00:56:42;;;;;;;12.63;7.32;;;24.50;95.60;;;;;;5093793;28;20039;-86
2023/08/28 00:59:08;;;;;;;19.75;8.32;;;24.50;95.50;;;;;;5093608;28;20143;-85
2023/08/28 01:01:34;;;;;;;15.70;7.78;;;24.40;95.60;;;;;;5093628;28;20161;-84
2023/08/28 01:04:00;;;;;;;15.68;7.20;;;24.40;95.80;;;;;;5091180;28;20131;-85
2023/08/28 01:06:43;;;;;;;19.17;7.32;;;24.30;95.90;;;;;;5092784;28;20478;-85
2023/08/28 01:09:27;;;;;;;11.00;6.80;;;24.40;96.20;;;;;;5092478;28;20024;-85
2023/08/28 01:12:25;;;;;;;14.82;7.15;;;24.40;95.80;;;;;;5092406;28;20107;-85
2023/08/28 01:15:18;;;;;;;14.82;7.18;;;24.40;95.90;;;;;;5092589;28;20087;-85
2023/08/28 01:17:47;;;;;;;17.95;7.95;;;24.50;96.20;;;;;;5092447;28;20134;-85
2023/08/28 01:20:15;;;;;;;16.83;8.25;;;24.30;96.30;;;;;;5091973;28;20019;-85
2023/08/28 01:23:04;;;;;;;16.90;7.35;;;24.30;96.40;;;;;;5093486;28;20020;-85
2023/08/28 01:25:32;;;;;;;18.25;7.20;;;24.30;96.30;;;;;;5093243;28;20020;-85
2023/08/28 01:27:59;;;;;;;13.75;8.02;;;24.20;96.40;;;;;;5093116;28;20032;-84
2023/08/28 01:30:25;;;;;;;17.05;7.22;;;24.20;97.20;;;;;;5093221;28;20050;-85
2023/08/28 01:32:51;;;;;;;15.07;8.07;;;24.10;97.20;;;;;;5091950;28;20020;-85
2023/08/28 01:35:25;;;;;;;11.70;6.85;;;24.00;97.70;;;;;;5091709;28;20031;-85
2023/08/28 01:38:12;;;;;;;18.77;7.57;;;24.00;97.70;;;;;;5092963;28;20060;-85
2023/08/28 01:40:44;;;;;;;14.50;7.75;;;24.00;97.80;;;;;;5092709;28;20034;-84
2023/08/28 01:43:12;;;;;;;11.15;6.93;;;24.00;98.00;;;;;;5091750;28;20021;-85
2023/08/28 01:45:38;;;;;;;7.80;6.45;;;24.00;98.20;;;;;;5095042;28;20028;-84
2023/08/28 01:48:07;;;;;;;13.10;6.38;;;24.00;98.40;;;;;;5101518;28;20028;-85
2023/08/28 01:50:33;;;;;;;10.27;6.63;;;24.00;98.70;;;;;;5092274;28;20469;-85
2023/08/28 01:52:59;;;;;;;11.63;6.97;;;24.00;98.60;;;;;;5091210;28;20073;-85
2023/08/28 01:55:46;;;;;;;11.05;7.05;;;23.90;98.80;;;;;;5092917;28;20032;-85
2023/08/28 01:58:15;;;;;;;14.07;7.55;;;23.80;99.40;;;;;;5091421;28;20119;-84
2023/08/28 02:00:41;;;;;;;21.42;7.35;;;23.70;99.80;;;;;;5092751;28;20086;-86
2023/08/28 02:03:08;;;;;;;16.00;6.63;;;23.70;99.90;;;;;;5092609;28;20482;-86
2023/08/28 02:05:34;;;;;;;16.90;6.82;;;23.70;99.80;;;;;;5092559;28;20495;-86
2023/08/28 02:08:00;;;;;;;16.75;6.30;;;23.70;99.80;;;;;;5091228;28;20103;-85
2023/08/28 02:10:25;;;;;;;16.85;7.32;;;23.70;99.80;;;;;;5092298;28;20036;-86
2023/08/28 02:12:51;;;;;;;15.40;7.22;;;23.70;99.90;;;;;;5091062;28;20043;-85
2023/08/28 02:15:17;;;;;;;12.57;6.57;;;23.70;99.90;;;;;;5091835;28;20492;-86
2023/08/28 02:17:42;;;;;;;12.88;7.88;;;23.70;99.90;;;;;;5091383;28;20096;-86
2023/08/28 02:20:11;;;;;;;13.77;6.80;;;23.70;99.90;;;;;;5091062;28;20028;-85
2023/08/28 02:22:37;;;;;;;14.05;7.82;;;23.60;99.90;;;;;;5091427;28;20496;-85
2023/08/28 02:25:05;;;;;;;13.15;5.93;;;23.60;99.90;;;;;;5090468;28;20020;-85
2023/08/28 02:27:31;;;;;;;10.93;6.63;;;23.50;99.90;;;;;;5091228;28;20038;-85
2023/08/28 02:29:56;;;;;;;17.63;7.07;;;23.60;99.90;;;;;;5089096;28;20020;-85
2023/08/28 02:32:23;;;;;;;11.32;6.22;;;23.60;99.90;;;;;;5092109;28;20028;-85
2023/08/28 02:34:49;;;;;;;18.13;7.28;;;23.60;99.90;;;;;;5091146;28;20112;-85
2023/08/28 02:37:15;;;;;;;13.35;7.50;;;23.60;99.90;;;;;;5091043;28;20118;-85
2023/08/28 02:39:41;;;;;;;16.13;7.00;;;23.50;99.90;;;;;;5091586;28;20103;-86
2023/08/28 02:42:06;;;;;;;10.32;7.22;;;23.50;99.90;;;;;;5092470;28;20469;-85
2023/08/28 02:44:32;;;;;;;20.27;6.38;;;23.40;99.90;;;;;;5090891;28;20024;-86
2023/08/28 02:46:58;;;;;;;12.50;6.80;;;23.40;99.90;;;;;;5089368;28;20081;-85
2023/08/28 02:49:23;;;;;;;11.88;6.13;;;23.40;99.90;;;;;;5091239;28;20028;-84
2023/08/28 02:51:49;;;;;;;15.13;6.85;;;23.30;99.90;;;;;;5095086;28;20031;-85
2023/08/28 02:54:14;;;;;;;14.10;7.13;;;23.30;99.90;;;;;;5093571;28;20107;-85
2023/08/28 02:56:40;;;;;;;16.30;7.53;;;23.30;99.90;;;;;;5090950;28;20028;-85
2023/08/28 02:59:07;;;;;;;10.68;6.75;;;23.20;99.90;;;;;;5091018;28;20476;-85
2023/08/28 03:01:36;;;;;;;8.95;6.00;;;23.20;99.90;;;;;;5092097;28;20052;-84
2023/08/28 03:04:06;;;;;;;11.45;7.35;;;23.20;99.90;;;;;;5092169;28;20396;-83
2023/08/28 03:06:36;;;;;;;12.60;6.95;;;23.20;99.90;;;;;;5091992;28;20024;-85
2023/08/28 03:09:02;;;;;;;17.58;6.35;;;23.20;99.90;;;;;;5091957;28;20020;-85
2023/08/28 03:11:28;;;;;;;19.95;7.72;;;23.10;99.90;;;;;;5092105;28;20038;-85
2023/08/28 03:13:54;;;;;;;11.00;6.32;;;23.20;99.90;;;;;;5090665;28;20400;-85
2023/08/28 03:16:20;;;;;;;18.85;6.60;;;23.30;99.90;;;;;;5091689;28;20048;-85
2023/08/28 03:18:45;;;;;;;17.63;6.43;;;23.30;99.90;;;;;;5092607;28;20029;-85
2023/08/28 03:21:11;;;;;;;10.38;6.32;;;23.30;99.90;;;;;;5090752;28;20648;-85
2023/08/28 03:23:37;;;;;;;16.98;6.38;;;23.40;99.90;;;;;;5092122;28;20052;-84
2023/08/28 03:26:03;;;;;;;14.43;5.72;;;23.40;99.90;;;;;;5092473;28;20065;-86
2023/08/28 03:28:29;;;;;;;12.93;7.47;;;23.40;99.90;;;;;;5095492;28;20028;-85
2023/08/28 03:30:59;;;;;;;15.95;7.78;;;23.30;99.90;;;;;;5097598;28;20032;-84
2023/08/28 03:33:25;;;;;;;13.57;6.95;;;23.30;99.90;;;;;;5103374;28;20032;-84
2023/08/28 03:35:51;;;;;;;16.90;6.85;;;23.30;99.90;;;;;;5094990;28;20737;-84
2023/08/28 03:38:17;;;;;;;11.85;6.97;;;23.30;99.90;;;;;;5094451;28;20119;-84
2023/08/28 03:40:44;;;;;;;15.68;6.75;;;23.30;99.90;;;;;;5093996;28;20066;-84
2023/08/28 03:43:10;;;;;;;17.55;6.38;;;23.40;99.90;;;;;;5095327;28;20134;-86
2023/08/28 03:45:36;;;;;;;17.42;7.13;;;23.40;99.90;;;;;;5095338;28;20020;-85
2023/08/28 03:48:02;;;;;;;15.48;7.28;;;23.50;99.90;;;;;;5094119;28;20114;-85
2023/08/28 03:50:30;;;;;;;12.50;6.15;;;23.50;99.90;;;;;;5094228;28;20165;-85
2023/08/28 03:53:00;;;;;;;17.13;7.10;;;23.50;99.90;;;;;;5093989;28;20392;-85
2023/08/28 03:55:27;;;;;;;13.40;6.82;;;23.60;99.90;;;;;;5094055;28;20683;-84
2023/08/28 03:57:54;;;;;;;14.23;6.35;;;23.60;99.90;;;;;;5093607;28;20028;-85
2023/08/28 04:00:20;;;;;;;16.98;6.25;;;23.60;99.90;;;;;;5094942;28;20027;-85
2023/08/28 04:02:47;;;;;;;19.58;6.47;;;23.60;99.90;;;;;;5093493;28;20024;-85
2023/08/28 04:05:13;;;;;;;20.33;6.78;;;23.60;99.90;;;;;;5093502;28;20481;-85
2023/08/28 04:07:40;;;;;;;17.17;6.03;;;23.60;99.90;;;;;;5093779;28;20047;-84
2023/08/28 04:10:07;;;;;;;13.05;6.68;;;23.60;99.90;;;;;;5094806;28;20032;-84
2023/08/28 04:12:33;;;;;;;21.15;6.57;;;23.50;99.90;;;;;;5092956;28;20067;-85
2023/08/28 04:14:59;;;;;;;10.43;6.82;;;23.60;99.90;;;;;;5092532;28;20074;-85
2023/08/28 04:17:26;;;;;;;18.00;6.47;;;23.50;99.90;;;;;;5092941;28;20559;-85
2023/08/28 04:19:54;;;;;;;10.23;6.47;;;23.50;99.90;;;;;;5094490;28;20051;-84
2023/08/28 04:22:20;;;;;;;15.00;7.03;;;23.50;99.90;;;;;;5094150;28;20152;-85
2023/08/28 04:24:46;;;;;;;12.93;6.25;;;23.60;99.90;;;;;;5094650;28;20032;-85
2023/08/28 04:27:12;;;;;;;16.98;6.93;;;23.60;99.90;;;;;;5094314;28;20097;-85
2023/08/28 04:29:39;;;;;;;14.52;6.38;;;23.60;99.90;;;;;;5092851;28;20023;-83
2023/08/28 04:32:04;;;;;;;15.02;6.95;;;23.60;99.90;;;;;;5092518;28;20038;-83
2023/08/28 04:34:30;;;;;;;14.80;6.05;;;23.70;99.90;;;;;;5075963;28;20024;-84
2023/08/28 04:36:56;;;;;;;15.15;6.50;;;23.70;99.90;;;;;;5073133;28;20752;-85
2023/08/28 04:39:23;;;;;;;18.27;6.32;;;23.80;99.90;;;;;;5073445;28;20020;-84
2023/08/28 04:41:49;;;;;;;16.67;6.97;;;23.80;99.90;;;;;;5074383;28;20163;-85
2023/08/28 04:44:15;;;;;;;17.27;6.90;;;23.90;99.90;;;;;;5074020;28;20060;-85
2023/08/28 04:46:41;;;;;;;15.05;6.60;;;24.00;99.90;;;;;;5074506;28;20102;-85
2023/08/28 04:49:06;;;;;;;12.10;5.70;;;24.10;99.90;;;;;;5077244;28;20032;-86
2023/08/28 04:51:32;;;;;;;14.77;6.35;;;24.20;99.90;;;;;;5074048;28;20024;-85
2023/08/28 04:53:58;;;;;;;10.32;6.18;;;24.30;99.90;;;;;;5073854;28;20037;-86
2023/08/28 04:56:23;;;;;;;10.57;6.35;;;24.40;99.90;;;;;;5089881;28;20397;-85
2023/08/28 04:58:49;;;;;;;17.17;6.93;;;24.50;99.90;;;;;;5072603;28;20036;-85
2023/08/28 05:01:15;;;;;;;11.75;6.00;;;24.70;99.90;;;;;;5074238;28;20452;-85
2023/08/28 05:03:41;;;;;;;8.88;6.00;;;24.80;99.90;;;;;;5074045;28;20070;-86
2023/08/28 05:06:06;;;;;;;13.45;6.72;;;24.90;99.90;;;;;;5073893;28;20033;-85
2023/08/28 05:08:32;;;;;;;10.00;6.22;;;25.10;99.90;;;;;;5073837;28;20036;-86
2023/08/28 05:11:00;;;;;;;12.88;6.72;;;25.20;99.90;;;;;;5073678;28;20074;-85
2023/08/28 05:13:25;;;;;;;17.75;6.47;;;25.50;99.90;;;;;;5074048;28;20052;-86
2023/08/28 05:15:51;;;;;;;13.93;5.78;;;26.00;99.90;;;;;;5072401;28;20070;-85
2023/08/28 05:18:17;;;;;;;9.02;6.60;;;26.30;98.70;;;;;;5073633;28;20048;-85
2023/08/28 05:20:42;;;;;;;14.13;6.47;;;26.60;96.90;;;;;;5074545;28;20017;-85
2023/08/28 05:23:08;;;;;;;15.45;6.90;;;26.70;95.90;;;;;;5071585;28;20489;-86
2023/08/28 05:25:34;;;;;;;19.40;6.75;;;26.80;95.30;;;;;;5070527;28;20374;-85
2023/08/28 05:28:00;;;;;;;16.65;6.05;;;26.90;95.20;;;;;;5071760;28;20021;-86
2023/08/28 05:30:25;;;;;;;26.05;6.95;;;27.10;94.50;;;;;;5073227;28;20107;-85
2023/08/28 05:32:51;;;;;;;14.07;6.78;;;27.20;93.90;;;;;;5089324;28;20535;-86
2023/08/28 05:35:17;;;;;;;13.18;6.82;;;27.30;93.60;;;;;;5071394;28;20498;-86
2023/08/28 05:37:42;;;;;;;12.05;5.30;;;27.40;92.80;;;;;;5072142;28;20615;-86
2023/08/28 05:40:09;;;;;;;17.85;6.00;;;27.60;92.80;;;;;;5072247;28;20025;-86
2023/08/28 05:42:34;;;;;;;10.65;5.50;;;27.70;92.00;;;;;;5088203;28;20127;-85
2023/08/28 05:45:00;;;;;;;18.20;6.97;;;27.80;92.00;;;;;;5071066;28;20159;-86
2023/08/28 05:47:26;;;;;;;18.25;6.18;;;28.00;91.60;;;;;;5070954;28;20392;-84
2023/08/28 05:49:51;;;;;;;18.80;6.20;;;28.30;91.00;;;;;;5071917;28;20068;-86
2023/08/28 05:52:17;;;;;;;14.30;6.68;;;28.50;90.60;;;;;;5072387;28;20025;-85
2023/08/28 05:54:43;;;;;;;16.63;6.20;;;28.70;89.80;;;;;;5072042;28;20024;-86
2023/08/28 05:57:08;;;;;;;12.80;6.53;;;29.00;89.10;;;;;;5072874;28;20417;-87
2023/08/28 05:59:34;;;;;;;17.85;6.32;;;29.50;87.20;;;;;;5072827;28;20348;-86
2023/08/28 06:02:00;;;;;;;23.90;6.43;;;30.10;83.90;;;;;;5072027;28;20027;-86
2023/08/28 06:04:27;;;;;;;19.98;5.55;;;30.50;81.00;;;;;;5071783;28;20029;-86
2023/08/28 06:06:53;;;;;;;15.07;6.10;;;30.90;78.90;;;;;;5072926;28;20111;-86
2023/08/28 06:09:18;;;;;;;14.73;6.28;;;30.80;78.00;;;;;;5071997;28;20467;-86
2023/08/28 06:11:44;;;;;;;14.25;4.70;;;31.20;75.90;;;;;;5071965;28;20028;-86
2023/08/28 06:14:10;;;;;;;19.92;5.25;;;31.50;74.30;;;;;;5069887;28;20036;-85
2023/08/28 06:16:36;;;;;;;17.83;5.43;;;31.50;71.30;;;;;;5072661;28;20071;-86
2023/08/28 06:19:03;;;;;;;10.32;5.40;;;31.80;70.50;;;;;;5072969;28;20060;-86
2023/08/28 06:21:31;;;;;;;15.82;6.15;;;32.00;70.30;;;;;;5088180;28;20041;-86
2023/08/28 06:23:56;;;;;;;11.13;5.45;;;32.10;70.50;;;;;;5071361;28;20029;-86
2023/08/28 06:26:22;;;;;;;10.85;5.30;;;32.30;68.30;;;;;;5071545;28;20032;-86
2023/08/28 06:28:47;;;;;;;14.30;5.43;;;32.40;67.50;;;;;;5072337;28;20384;-87
2023/08/28 06:31:13;;;;;;;20.70;5.70;;;32.80;66.60;;;;;;5072439;28;20039;-85
2023/08/28 06:33:39;;;;;;;21.25;5.70;;;33.00;66.10;;;;;;5070873;28;20062;-85
2023/08/28 06:36:04;;;;;;;15.85;5.40;;;33.20;64.90;;;;;;5070509;28;20413;-86
2023/08/28 06:38:30;;;;;;;8.63;4.55;;;33.10;65.60;;;;;;5071312;28;20038;-85
2023/08/28 06:40:56;;;;;;;15.32;6.07;;;33.70;62.30;;;;;;5071796;28;20443;-86
2023/08/28 06:43:21;;;;;;;18.27;5.60;;;34.10;61.70;;;;;;5072457;28;20359;-85
2023/08/28 06:45:47;;;;;;;14.13;5.13;;;34.80;58.20;;;;;;5071193;28;20394;-86
2023/08/28 06:48:13;;;;;;;13.32;5.47;;;34.80;56.90;;;;;;5071165;28;20029;-85
2023/08/28 06:50:39;;;;;;;13.95;5.60;;;35.00;57.00;;;;;;5071249;28;20429;-86
2023/08/28 06:53:04;;;;;;;16.60;5.43;;;35.40;55.80;;;;;;5070863;28;20497;-86
2023/08/28 06:55:32;;;;;;;13.82;5.30;;;35.40;54.30;;;;;;5071972;28;20024;-86
2023/08/28 06:57:58;;;;;;;18.17;5.70;;;35.40;53.80;;;;;;5071993;28;20033;-86
2023/08/28 07:00:24;;;;;;;20.27;5.90;;;35.40;53.00;;;;;;5071009;28;20504;-86
2023/08/28 07:02:50;;;;;;;14.38;5.93;;;35.30;52.70;;;;;;5080460;28;20050;-86
2023/08/28 07:05:16;;;;;;;8.23;4.82;;;35.60;53.50;;;;;;5078848;28;20107;-86
2023/08/28 07:07:42;;;;;;;17.50;6.43;;;35.70;52.20;;;;;;5076113;28;20052;-87
2023/08/28 07:10:07;;;;;;;16.55;5.68;;;35.90;51.90;;;;;;5074698;28;20063;-86
2023/08/28 07:12:33;;;;;;;17.77;5.65;;;35.90;50.60;;;;;;5074721;28;20028;-86
2023/08/28 07:15:31;;;;;;;12.35;5.40;;;36.00;52.00;;;;;;5091307;28;20454;-86
2023/08/28 07:17:57;;;;;;;10.30;5.00;;;36.10;48.80;;;;;;5074180;28;20120;-85
2023/08/28 07:20:23;;;;;;;8.43;4.55;;;36.40;47.90;;;;;;5073146;28;20116;-86
2023/08/28 07:22:54;;;;;;;17.65;5.28;;;36.90;47.00;;;;;;5075881;28;20043;-86
2023/08/28 07:25:22;;;;;;;8.70;5.30;;;37.40;46.50;;;;;;5074097;28;20027;-86
2023/08/28 07:27:49;;;;;;;19.23;5.68;;;37.90;45.20;;;;;;5075326;28;20017;-84
2023/08/28 07:30:14;;;;;;;15.88;5.30;;;38.10;45.40;;;;;;5074265;28;20039;-85
2023/08/28 07:32:40;;;;;;;20.33;5.03;;;37.60;44.50;;;;;;5074028;28;20435;-85
2023/08/28 07:35:07;;;;;;;12.77;4.78;;;37.00;46.50;;;;;;5073984;28;20469;-86
2023/08/28 07:37:36;;;;;;;17.95;5.30;;;36.50;46.10;;;;;;5073938;28;20115;-86
2023/08/28 07:40:04;;;;;;;20.63;4.38;;;36.50;45.20;;;;;;5073822;28;20039;-86
2023/08/28 07:42:29;;;;;;;13.55;4.80;;;36.60;46.10;;;;;;5074958;28;20035;-86
2023/08/28 07:44:55;;;;;;;7.63;4.45;;;37.10;45.40;;;;;;5073697;28;20646;-85
2023/08/28 07:47:26;;;;;;;12.77;4.80;;;37.30;45.00;;;;;;5075262;28;20028;-86
2023/08/28 07:49:53;;;;;;;13.50;4.90;;;37.00;45.80;;;;;;5074121;28;20400;-85
2023/08/28 07:52:19;;;;;;;14.82;5.10;;;36.90;46.20;;;;;;5074947;28;20047;-85
2023/08/28 07:54:44;;;;;;;13.00;4.38;;;37.10;46.10;;;;;;5073858;28;20481;-86
2023/08/28 07:57:10;;;;;;;17.35;4.15;;;37.50;45.90;;;;;;5072054;28;20033;-85
2023/08/28 07:59:36;;;;;;;16.23;4.53;;;37.80;44.40;;;;;;5074488;28;20112;-86
2023/08/28 08:02:04;;;;;;;14.98;5.10;;;37.80;44.80;;;;;;5090497;28;20040;-86
2023/08/28 08:04:31;;;;;;;15.98;4.78;;;37.80;43.40;;;;;;5073285;28;20072;-86
2023/08/28 08:06:57;;;;;;;12.57;4.47;;;37.80;43.20;;;;;;5073343;28;20017;-85
2023/08/28 08:09:24;;;;;;;11.35;4.43;;;37.60;43.10;;;;;;5074660;28;20108;-85
2023/08/28 08:11:49;;;;;;;10.55;4.78;;;37.70;43.70;;;;;;5074293;28;20024;-86
2023/08/28 08:14:15;;;;;;;10.23;4.85;;;38.10;44.10;;;;;;5071898;28;20033;-85
2023/08/28 08:16:40;;;;;;;13.80;4.72;;;38.50;43.20;;;;;;5073198;28;20503;-85
2023/08/28 08:19:06;;;;;;;11.68;4.38;;;38.40;40.60;;;;;;5073336;28;20060;-86
2023/08/28 08:21:32;;;;;;;13.75;4.43;;;38.40;42.00;;;;;;5074702;28;20024;-86
2023/08/28 08:23:57;;;;;;;17.13;4.70;;;38.40;42.00;;;;;;5071260;28;20033;-85
2023/08/28 08:26:23;;;;;;;24.05;5.18;;;38.40;41.90;;;;;;5072311;28;20036;-86
2023/08/28 08:28:49;;;;;;;12.55;5.20;;;38.00;41.80;;;;;;5073805;28;20024;-85
2023/08/28 08:31:14;;;;;;;16.83;5.10;;;37.60;42.90;;;;;;5074478;28;20055;-86
2023/08/28 08:33:40;;;;;;;18.17;5.25;;;37.60;43.50;;;;;;5073908;28;20095;-87
2023/08/28 08:36:06;;;;;;;14.18;5.28;;;37.40;43.50;;;;;;5089695;28;20033;-87
2023/08/28 08:38:32;;;;;;;15.75;4.85;;;37.20;43.50;;;;;;5074377;28;20166;-87
2023/08/28 08:41:01;;;;;;;17.60;4.45;;;37.20;44.30;;;;;;5074125;28;20138;-86
2023/08/28 08:43:28;;;;;;;11.25;5.40;;;37.10;44.00;;;;;;5073263;28;20063;-85
2023/08/28 08:46:07;;;;;;;20.30;5.18;;;36.80;44.30;;;;;;5072759;28;20078;-86
2023/08/28 08:48:36;;;;;;;16.60;4.78;;;36.90;45.40;;;;;;5077327;28;20085;-86
2023/08/28 08:51:06;;;;;;;10.45;4.53;;;37.00;46.00;;;;;;5075670;28;20119;-86
2023/08/28 08:53:38;;;;;;;14.05;4.80;;;37.00;44.00;;;;;;5074207;28;20103;-86
2023/08/28 08:56:05;;;;;;;9.85;4.85;;;37.20;44.90;;;;;;5072665;28;20035;-86
2023/08/28 08:58:31;;;;;;;18.83;4.80;;;37.00;44.70;;;;;;5072758;28;20089;-86
2023/08/28 09:00:59;;;;;;;12.52;4.80;;;37.10;44.90;;;;;;5072223;28;20033;-86
2023/08/28 09:03:26;;;;;;;12.35;3.83;;;36.90;44.20;;;;;;5072477;28;20020;-86
2023/08/28 09:05:53;;;;;;;22.15;5.10;;;36.80;44.00;;;;;;5072713;28;20027;-85
2023/08/28 09:08:21;;;;;;;12.80;4.05;;;37.10;44.40;;;;;;5074249;28;20032;-84
2023/08/28 09:13:31;;;;;;;11.68;3.38;;;37.60;43.20;;;;;;5072377;28;20082;-85
2023/08/28 09:15:57;;;;;;;13.95;3.78;;;37.80;40.10;;;;;;5088047;28;20497;-85
2023/08/28 09:18:25;;;;;;;9.65;3.83;;;37.80;40.10;;;;;;5071174;28;20603;-86
2023/08/28 09:21:09;;;;;;;15.00;3.75;;;37.70;39.10;;;;;;5072148;28;20013;-85
2023/08/28 09:23:45;;;;;;;8.00;3.05;;;38.00;38.30;;;;;;5071826;28;20048;-86
2023/08/28 09:26:19;;;;;;;16.08;3.83;;;38.20;38.60;;;;;;5072442;28;20024;-85
2023/08/28 09:28:57;;;;;;;13.87;3.77;;;38.50;38.20;;;;;;5071924;28;20165;-85
2023/08/28 09:31:33;;;;;;;16.92;3.65;;;38.90;38.20;;;;;;5071467;28;20021;-86
2023/08/28 09:34:00;;;;;;;12.40;3.67;;;39.00;37.40;;;;;;5071610;28;20396;-85
2023/08/28 09:36:27;;;;;;;10.38;3.10;;;38.80;36.30;;;;;;5071472;28;20401;-84
2023/08/28 09:38:57;;;;;;;7.82;3.17;;;38.90;37.20;;;;;;5072498;28;20093;-85
2023/08/28 09:41:40;;;;;;;13.50;3.53;;;39.30;36.80;;;;;;5086900;28;20069;-86
2023/08/28 09:44:06;;;;;;;13.95;3.50;;;39.40;36.70;;;;;;5071334;28;20078;-86
2023/08/28 09:46:32;;;;;;;10.63;3.20;;;39.90;36.00;;;;;;5071043;28;20032;-85
2023/08/28 09:48:57;;;;;;;18.98;3.85;;;40.10;35.50;;;;;;5071201;28;20538;-86
2023/08/28 09:51:39;;;;;;;7.10;2.85;;;40.40;35.50;;;;;;5070827;28;20032;-86
2023/08/28 09:54:05;;;;;;;9.43;3.08;;;40.50;34.80;;;;;;5072132;28;20111;-85
2023/08/28 09:56:31;;;;;;;21.60;3.08;;;40.60;33.80;;;;;;5070338;28;20516;-83
2023/08/28 09:59:03;;;;;;;10.07;3.00;;;40.30;33.30;;;;;;5071180;28;20433;-84
2023/08/28 10:01:34;;;;;;;18.88;2.70;;;39.50;33.70;;;;;;5071581;28;20554;-85
2023/08/28 10:04:09;;;;;;;11.48;3.13;;;39.00;35.20;;;;;;5070213;28;20020;-83
2023/08/28 10:06:41;;;;;;;8.20;2.70;;;38.70;34.90;;;;;;5070048;28;20115;-82
2023/08/28 10:09:15;;;;;;;9.00;3.03;;;38.40;35.60;;;;;;5070866;28;20028;-83
2023/08/28 10:11:42;;;;;;;12.55;3.55;;;38.30;35.70;;;;;;5070103;28;20036;-82
2023/08/28 10:14:10;;;;;;;11.40;3.22;;;37.90;35.50;;;;;;5071995;28;20389;-83
2023/08/28 10:16:49;;;;;;;18.30;2.90;;;38.00;36.80;;;;;;5071991;28;20040;-86
2023/08/28 10:19:24;;;;;;;13.90;3.03;;;37.90;36.90;;;;;;5086572;28;20036;-82
2023/08/28 10:21:51;;;;;;;12.10;3.25;;;37.60;36.60;;;;;;5070140;28;20021;-86
2023/08/28 10:24:17;;;;;;;12.23;3.00;;;37.20;37.40;;;;;;5069766;28;20392;-86
2023/08/28 10:26:44;;;;;;;13.70;2.90;;;37.10;37.90;;;;;;5071461;28;20092;-83
2023/08/28 10:29:10;;;;;;;9.52;3.17;;;37.00;37.50;;;;;;5070920;28;20016;-85
2023/08/28 10:31:38;;;;;;;11.85;3.25;;;36.90;36.30;;;;;;5071774;28;20107;-86
2023/08/28 10:34:06;;;;;;;11.70;2.88;;;36.50;36.90;;;;;;5071136;28;20062;-85
2023/08/28 10:36:32;;;;;;;8.40;2.78;;;36.20;38.00;;;;;;5073702;28;20028;-82
2023/08/28 10:39:00;;;;;;;9.98;2.75;;;36.00;39.00;;;;;;5074776;28;20047;-83
2023/08/28 10:41:28;;;;;;;9.90;2.55;;;36.20;38.40;;;;;;5071164;28;20059;-83
2023/08/28 10:43:54;;;;;;;22.23;4.35;;;36.30;36.70;;;;;;5070120;28;20032;-84
2023/08/28 10:46:21;;;;;;;15.93;3.00;;;36.40;37.80;;;;;;5069474;28;20016;-84
2023/08/28 10:48:47;;;;;;;14.48;3.15;;;36.40;37.70;;;;;;5071028;28;20033;-84
2023/08/28 10:51:17;;;;;;;20.20;3.00;;;36.40;38.70;;;;;;5070447;28;20115;-84
2023/08/28 10:53:43;;;;;;;11.25;2.70;;;36.20;36.70;;;;;;5071635;28;20027;-84
2023/08/28 10:56:12;;;;;;;9.25;3.42;;;36.00;37.90;;;;;;5070587;28;20473;-83
2023/08/28 10:58:38;;;;;;;16.48;2.97;;;35.70;38.30;;;;;;5068784;28;20040;-84
2023/08/28 11:01:17;;;;;;;13.40;3.58;;;35.50;39.60;;;;;;5070932;28;20020;-83
2023/08/28 11:04:02;;;;;;;10.50;3.00;;;35.30;38.60;;;;;;5071507;28;20078;-84
2023/08/28 11:06:33;;;;;;;16.77;2.92;;;35.10;38.30;;;;;;5070183;28;20078;-83
2023/08/28 11:09:28;;;;;;;17.30;3.30;;;35.00;39.30;;;;;;5071102;28;20099;-85
2023/08/28 11:12:00;;;;;;;15.85;3.08;;;35.00;39.60;;;;;;5070055;28;20073;-84
2023/08/28 11:14:38;;;;;;;17.42;2.53;;;35.10;39.70;;;;;;5068624;28;20036;-81
2023/08/28 11:17:07;;;;;;;21.48;3.25;;;35.30;38.50;;;;;;5068782;28;20191;-84
2023/08/28 11:19:33;;;;;;;13.68;3.13;;;35.30;39.40;;;;;;5069623;28;20025;-83
2023/08/28 11:21:59;;;;;;;11.07;3.13;;;35.50;39.20;;;;;;5072621;28;20107;-85
2023/08/28 11:24:26;;;;;;;22.08;3.22;;;35.80;37.80;;;;;;5086225;28;20115;-84
2023/08/28 11:26:52;;;;;;;15.43;3.28;;;35.80;37.20;;;;;;5085572;28;20057;-85
2023/08/28 11:29:32;;;;;;;13.88;3.35;;;35.80;37.20;;;;;;5090458;28;20099;-86
2023/08/28 11:32:01;;;;;;;10.10;3.45;;;35.80;38.60;;;;;;5089900;28;20119;-85
2023/08/28 11:34:27;;;;;;;10.60;2.75;;;36.00;38.60;;;;;;5092172;28;20036;-85
2023/08/28 11:36:55;;;;;;;11.88;2.88;;;36.10;37.40;;;;;;5090791;28;20031;-85
2023/08/28 11:39:23;;;;;;;9.07;2.88;;;36.20;36.60;;;;;;5090177;28;20168;-85
2023/08/28 11:41:49;;;;;;;17.45;2.88;;;36.20;37.40;;;;;;5089586;28;20020;-83
2023/08/28 11:44:15;;;;;;;12.02;2.72;;;36.20;38.20;;;;;;5090919;28;20032;-84
2023/08/28 11:46:42;;;;;;;13.20;3.72;;;36.20;37.40;;;;;;5090597;28;20035;-85
2023/08/28 11:49:07;;;;;;;21.83;3.85;;;36.10;36.50;;;;;;5093006;28;20039;-83
2023/08/28 11:51:35;;;;;;;17.70;3.70;;;35.90;36.50;;;;;;5093884;28;20388;-85
2023/08/28 11:54:01;;;;;;;25.20;3.83;;;35.80;37.40;;;;;;5094635;28;20039;-85
2023/08/28 11:56:27;;;;;;;13.48;3.45;;;35.80;37.20;;;;;;5095096;28;20020;-85
2023/08/28 11:58:53;;;;;;;16.45;3.53;;;35.80;37.10;;;;;;5093017;28;20031;-84
2023/08/28 12:01:20;;;;;;;10.55;3.60;;;35.80;37.10;;;;;;5092739;28;20020;-83
2023/08/28 12:03:45;;;;;;;13.68;3.40;;;35.90;37.30;;;;;;5086917;28;20063;-85
2023/08/28 12:06:14;;;;;;;15.35;3.38;;;35.90;37.30;;;;;;5090460;28;20504;-85
2023/08/28 12:08:47;;;;;;;10.07;2.97;;;35.90;37.80;;;;;;5074695;28;20405;-85
2023/08/28 12:11:13;;;;;;;8.32;3.13;;;35.90;37.80;;;;;;5073150;28;20040;-84
2023/08/28 12:13:39;;;;;;;18.42;3.33;;;36.00;37.90;;;;;;5073016;28;20016;-85
2023/08/28 12:16:25;;;;;;;11.30;3.10;;;36.10;37.00;;;;;;5074322;28;20055;-85
2023/08/28 12:18:51;;;;;;;;;;;36.10;37.90;;;;;;5075101;28;20033;-86
2023/08/28 12:21:20;;;;;;;25.05;3.75;;;36.10;37.30;;;;;;5072271;28;19908;-84
2023/08/28 12:23:54;;;;;;;11.65;4.07;;;36.00;36.50;;;;;;5073368;28;20040;-83
2023/08/28 12:26:22;;;;;;;13.45;3.92;;;35.90;36.50;;;;;;5073403;28;20032;-86
2023/08/28 12:28:48;;;;;;;15.20;3.38;;;35.90;38.10;;;;;;5084926;28;20568;-84
2023/08/28 12:31:15;;;;;;;11.40;3.47;;;35.90;37.40;;;;;;5092567;28;20122;-85
2023/08/28 12:33:44;;;;;;;17.67;3.65;;;36.00;37.90;;;;;;5089494;28;20081;-85
2023/08/28 12:36:11;;;;;;;13.02;3.28;;;36.10;38.50;;;;;;5089568;28;20074;-84
2023/08/28 12:38:48;;;;;;;16.42;3.80;;;36.00;37.10;;;;;;5084765;28;20039;-83
2023/08/28 12:41:17;;;;;;;13.40;3.22;;;36.10;37.00;;;;;;5087072;28;20516;-85
2023/08/28 12:43:46;;;;;;;14.60;3.15;;;36.10;37.10;;;;;;5083568;28;20065;-83